Time;durP1;ratioP1;P1;durP2;ratioP2;P2;SDS_P1;SDS_P2;PMS_P1;PMS_P2;Temp;Humidity;BMP_temperature;BMP_pressure;BME280_temperature;BME280_humidity;BME280_pressure;Samples;Min_cycle;Max_cycle;Signal;HPM_P1;HPM_P2
2022/01/06 00:00:28;;;;;;;17.88;7.38;;;3.50;99.90;;;;;;5019965;28;20026;-75
2022/01/06 00:02:54;;;;;;;14.30;6.75;;;3.50;99.90;;;;;;5020698;28;20021;-75
2022/01/06 00:05:20;;;;;;;11.63;6.43;;;3.50;99.90;;;;;;5019638;28;20559;-75
2022/01/06 00:07:46;;;;;;;13.82;6.95;;;3.50;99.90;;;;;;5020528;28;20072;-75
2022/01/06 00:10:14;;;;;;;13.40;7.10;;;3.50;99.90;;;;;;5019654;28;20033;-75
2022/01/06 00:13:02;;;;;;;11.75;6.25;;;3.50;99.90;;;;;;5020238;28;20490;-75
2022/01/06 00:23:28;;;;;;;13.30;7.05;;;3.60;99.90;;;;;;5020684;28;20065;-75
2022/01/06 00:25:54;;;;;;;15.30;7.38;;;3.60;99.90;;;;;;5019401;28;20029;-74
2022/01/06 00:28:20;;;;;;;13.48;6.03;;;3.60;99.90;;;;;;5018775;28;20434;-74
2022/01/06 00:30:46;;;;;;;25.80;8.70;;;3.60;99.90;;;;;;5019091;28;20482;-74
2022/01/06 00:33:12;;;;;;;11.15;7.05;;;3.60;99.90;;;;;;5018927;28;20044;-75
2022/01/06 00:35:38;;;;;;;13.35;6.05;;;3.60;99.90;;;;;;5020268;28;20033;-74
2022/01/06 00:38:07;;;;;;;16.00;6.80;;;3.60;99.90;;;;;;5020149;28;20513;-74
2022/01/06 00:40:37;;;;;;;12.32;6.20;;;3.50;99.90;;;;;;5019003;28;20030;-74
2022/01/06 00:43:04;;;;;;;20.73;7.47;;;3.60;99.90;;;;;;5019687;28;20078;-74
2022/01/06 00:45:31;;;;;;;8.00;6.22;;;3.60;99.90;;;;;;5020283;28;20026;-74
2022/01/06 00:47:57;;;;;;;7.65;6.07;;;3.70;99.90;;;;;;5018926;28;20375;-75
2022/01/06 00:50:24;;;;;;;13.70;6.75;;;3.70;99.90;;;;;;5026763;28;20021;-75
2022/01/06 00:52:50;;;;;;;16.23;6.82;;;3.70;99.90;;;;;;5038644;28;20034;-74
2022/01/06 00:55:16;;;;;;;19.35;7.10;;;3.70;99.90;;;;;;5038792;28;20477;-75
2022/01/06 00:57:42;;;;;;;18.90;6.97;;;3.70;99.90;;;;;;5038233;28;20112;-74
2022/01/06 01:00:09;;;;;;;12.55;5.50;;;3.70;99.90;;;;;;5038400;28;20057;-74
2022/01/06 01:02:34;;;;;;;16.42;7.13;;;3.70;99.90;;;;;;5039187;28;20026;-75
2022/01/06 01:05:03;;;;;;;16.42;6.88;;;3.70;99.90;;;;;;5038666;28;20499;-75
2022/01/06 01:07:29;;;;;;;10.55;6.22;;;3.60;99.90;;;;;;5037223;28;20108;-75
2022/01/06 01:09:57;;;;;;;12.05;6.05;;;3.70;99.90;;;;;;5038259;28;20083;-75
2022/01/06 01:12:25;;;;;;;10.40;5.13;;;3.70;99.90;;;;;;5038044;28;20028;-75
2022/01/06 01:15:05;;;;;;;14.07;6.07;;;3.70;99.90;;;;;;5038436;28;20453;-75
2022/01/06 01:17:31;;;;;;;15.35;6.65;;;3.70;99.90;;;;;;5038256;28;20025;-74
2022/01/06 01:19:57;;;;;;;18.20;6.43;;;3.70;99.90;;;;;;5027958;28;20470;-74
2022/01/06 01:22:23;;;;;;;18.63;6.93;;;3.70;99.90;;;;;;5019462;28;20048;-75
2022/01/06 01:24:49;;;;;;;11.35;5.80;;;3.70;99.90;;;;;;5019477;28;20026;-74
2022/01/06 01:27:16;;;;;;;9.70;5.60;;;3.70;99.90;;;;;;5018919;28;20022;-75
2022/01/06 01:29:56;;;;;;;17.73;7.40;;;3.60;99.90;;;;;;5018008;28;20030;-75
2022/01/06 01:32:29;;;;;;;13.02;6.38;;;3.60;99.90;;;;;;5017985;28;20371;-74
2022/01/06 01:35:00;;;;;;;9.90;6.45;;;3.60;99.90;;;;;;5017930;28;20052;-75
2022/01/06 01:37:26;;;;;;;22.40;8.45;;;3.60;99.90;;;;;;5008307;28;20014;-75
2022/01/06 01:39:52;;;;;;;11.27;6.28;;;3.60;99.90;;;;;;5017618;28;20030;-75
2022/01/06 01:42:18;;;;;;;10.95;6.68;;;3.60;99.90;;;;;;5017453;28;20025;-75
2022/01/06 01:44:45;;;;;;;17.50;6.05;;;3.60;99.90;;;;;;5017724;28;20041;-75
2022/01/06 01:47:14;;;;;;;13.48;6.47;;;3.60;99.90;;;;;;5017789;28;20088;-75
2022/01/06 01:49:49;;;;;;;10.25;5.80;;;3.60;99.90;;;;;;5018849;28;20022;-74
2022/01/06 01:52:18;;;;;;;14.18;6.80;;;3.60;99.90;;;;;;5017970;28;20022;-75
2022/01/06 01:54:44;;;;;;;8.77;5.50;;;3.60;99.90;;;;;;5018693;28;20036;-75
2022/01/06 01:57:10;;;;;;;13.68;6.40;;;3.60;99.90;;;;;;5018493;28;20018;-75
2022/01/06 01:59:35;;;;;;;14.50;6.55;;;3.60;99.90;;;;;;5018923;28;20034;-74
2022/01/06 02:02:03;;;;;;;16.08;9.40;;;3.50;99.90;;;;;;5017433;28;20036;-75
2022/01/06 02:04:29;;;;;;;19.65;7.30;;;3.50;99.90;;;;;;5017220;28;20030;-75
2022/01/06 02:06:54;;;;;;;16.65;7.10;;;3.50;99.90;;;;;;5017306;28;20076;-75
2022/01/06 02:09:20;;;;;;;18.65;7.68;;;3.50;99.90;;;;;;5018608;28;20121;-74
2022/01/06 02:11:46;;;;;;;14.63;6.47;;;3.50;99.90;;;;;;5017095;28;20045;-75
2022/01/06 02:14:12;;;;;;;14.05;7.22;;;3.50;99.90;;;;;;5018249;28;20033;-74
2022/01/06 02:16:38;;;;;;;13.93;7.28;;;3.40;99.90;;;;;;5018539;28;20018;-75
2022/01/06 02:19:04;;;;;;;19.73;7.38;;;3.50;99.90;;;;;;5017131;28;20481;-74
2022/01/06 02:21:32;;;;;;;14.43;6.78;;;3.40;99.90;;;;;;5018336;28;20097;-74
2022/01/06 02:23:58;;;;;;;17.58;6.65;;;3.40;99.90;;;;;;5018243;28;20033;-75
2022/01/06 02:26:23;;;;;;;19.55;7.22;;;3.40;99.90;;;;;;5016968;28;20041;-74
2022/01/06 02:28:49;;;;;;;12.20;7.68;;;3.30;99.90;;;;;;5017875;28;20478;-74
2022/01/06 02:31:15;;;;;;;13.07;6.63;;;3.30;99.90;;;;;;5018392;28;20060;-74
2022/01/06 02:33:41;;;;;;;12.98;7.25;;;3.30;99.90;;;;;;5016692;28;20034;-74
2022/01/06 02:36:07;;;;;;;12.68;6.80;;;3.30;99.90;;;;;;5016955;28;20138;-74
2022/01/06 02:38:35;;;;;;;17.98;6.95;;;3.30;99.90;;;;;;5018055;28;20053;-74
2022/01/06 02:41:03;;;;;;;24.17;7.55;;;3.30;99.90;;;;;;5018333;28;20087;-75
2022/01/06 02:43:30;;;;;;;13.43;7.00;;;3.30;99.90;;;;;;5016492;28;20034;-75
2022/01/06 02:45:56;;;;;;;17.30;7.53;;;3.20;99.90;;;;;;5018131;28;20505;-75
2022/01/06 02:48:22;;;;;;;15.32;6.88;;;3.20;99.90;;;;;;5018070;28;20026;-75
2022/01/06 02:50:50;;;;;;;13.80;8.18;;;3.20;99.90;;;;;;5016809;28;20023;-75
2022/01/06 02:53:17;;;;;;;18.00;6.90;;;3.10;99.90;;;;;;5016671;28;20424;-75
2022/01/06 02:55:50;;;;;;;17.35;6.65;;;3.10;99.90;;;;;;5016785;28;20404;-75
2022/01/06 02:58:20;;;;;;;21.75;7.28;;;3.00;99.90;;;;;;5017734;28;20022;-74
2022/01/06 03:00:46;;;;;;;14.30;7.13;;;3.00;99.90;;;;;;5016692;28;20116;-75
2022/01/06 03:03:11;;;;;;;15.90;7.65;;;2.90;99.90;;;;;;5016743;28;20085;-75
2022/01/06 03:05:37;;;;;;;14.98;7.43;;;2.90;99.90;;;;;;5016577;28;20117;-74
2022/01/06 03:08:04;;;;;;;16.67;6.70;;;2.90;99.90;;;;;;5017512;28;20042;-75
2022/01/06 03:10:31;;;;;;;12.40;6.80;;;2.90;99.90;;;;;;5016436;28;20370;-75
2022/01/06 03:12:57;;;;;;;20.45;9.45;;;2.90;99.90;;;;;;5015958;28;20038;-74
2022/01/06 03:15:23;;;;;;;14.35;7.57;;;2.90;99.90;;;;;;5016425;28;20073;-74
2022/01/06 03:17:57;;;;;;;22.10;7.07;;;2.90;99.90;;;;;;5017904;28;20026;-74
2022/01/06 03:20:25;;;;;;;19.58;6.28;;;2.90;99.90;;;;;;5017386;28;20032;-74
2022/01/06 03:22:55;;;;;;;13.82;6.97;;;2.90;99.90;;;;;;5016368;28;20030;-75
2022/01/06 03:25:22;;;;;;;17.10;6.83;;;2.80;99.90;;;;;;5016302;28;20076;-74
2022/01/06 03:27:48;;;;;;;10.82;6.10;;;2.90;99.90;;;;;;5016076;28;20253;-74
2022/01/06 03:30:17;;;;;;;15.55;7.25;;;2.80;99.90;;;;;;5019895;28;20060;-74
2022/01/06 03:32:43;;;;;;;13.93;6.30;;;2.80;99.90;;;;;;5022916;28;20482;-75
2022/01/06 03:35:12;;;;;;;11.52;7.00;;;2.80;99.90;;;;;;5022425;28;20026;-74
2022/01/06 03:37:39;;;;;;;14.43;9.15;;;2.80;99.90;;;;;;5022955;28;20053;-74
2022/01/06 03:40:08;;;;;;;13.07;5.75;;;2.80;99.90;;;;;;5023894;28;20105;-75
2022/01/06 03:42:35;;;;;;;30.33;8.07;;;2.80;99.90;;;;;;5022416;28;20060;-74
2022/01/06 03:45:03;;;;;;;21.05;9.90;;;2.80;99.90;;;;;;5023620;28;20078;-74
2022/01/06 03:47:29;;;;;;;21.85;7.28;;;2.70;99.90;;;;;;5022938;28;20025;-75
2022/01/06 03:49:55;;;;;;;19.23;7.90;;;2.70;99.90;;;;;;5022547;28;20022;-74
2022/01/06 03:52:23;;;;;;;15.35;7.30;;;2.70;99.90;;;;;;5023975;28;20073;-75
2022/01/06 03:54:50;;;;;;;18.65;8.48;;;2.70;99.90;;;;;;5022534;28;20121;-75
2022/01/06 03:57:19;;;;;;;11.68;7.22;;;2.70;99.90;;;;;;5021984;28;20065;-75
2022/01/06 03:59:45;;;;;;;16.65;8.82;;;2.70;99.90;;;;;;5023487;28;20057;-74
2022/01/06 04:02:11;;;;;;;17.38;7.80;;;2.70;99.90;;;;;;5023824;28;20030;-75
2022/01/06 04:04:37;;;;;;;10.07;7.38;;;2.70;99.90;;;;;;5023452;28;20062;-75
2022/01/06 04:07:04;;;;;;;17.10;7.05;;;2.70;99.90;;;;;;5023688;28;20060;-74
2022/01/06 04:09:29;;;;;;;18.63;7.20;;;2.70;99.90;;;;;;5021990;28;20045;-75
2022/01/06 04:11:55;;;;;;;19.90;7.32;;;2.60;99.90;;;;;;5022011;28;20037;-74
2022/01/06 04:14:21;;;;;;;14.52;7.63;;;2.60;99.90;;;;;;5022374;28;20021;-74
2022/01/06 04:16:48;;;;;;;15.00;6.32;;;2.70;99.90;;;;;;5023372;28;20134;-74
2022/01/06 04:19:14;;;;;;;16.52;7.53;;;2.60;99.90;;;;;;5023533;28;20061;-74
2022/01/06 04:21:43;;;;;;;15.25;7.72;;;2.60;99.90;;;;;;5015106;28;20034;-74
2022/01/06 04:24:08;;;;;;;15.77;7.75;;;2.50;99.90;;;;;;5022953;28;20043;-74
2022/01/06 04:26:34;;;;;;;13.98;7.18;;;2.50;99.90;;;;;;5023351;28;20064;-74
2022/01/06 04:29:00;;;;;;;21.98;8.23;;;2.40;99.90;;;;;;5022045;28;20018;-74
2022/01/06 04:31:26;;;;;;;13.93;7.07;;;2.40;99.90;;;;;;5023641;28;20026;-74
2022/01/06 04:33:51;;;;;;;16.90;6.88;;;2.30;99.90;;;;;;5021902;28;20021;-74
2022/01/06 04:36:20;;;;;;;16.33;7.45;;;2.20;99.90;;;;;;5022204;28;20029;-74
2022/01/06 04:38:46;;;;;;;13.70;7.13;;;2.20;99.90;;;;;;5023459;28;20029;-74
2022/01/06 04:41:12;;;;;;;15.73;8.00;;;2.20;99.90;;;;;;5022236;28;20034;-75
2022/01/06 04:43:37;;;;;;;16.15;7.70;;;2.20;99.90;;;;;;5019083;28;20551;-74
2022/01/06 04:46:03;;;;;;;16.50;8.50;;;2.10;99.90;;;;;;5020153;28;20029;-77
2022/01/06 04:48:29;;;;;;;14.82;7.82;;;2.00;99.90;;;;;;5020158;28;20482;-77
2022/01/06 04:50:55;;;;;;;19.70;8.70;;;2.00;99.90;;;;;;5020312;28;20465;-77
2022/01/06 04:53:21;;;;;;;17.08;7.93;;;1.90;99.90;;;;;;5018850;28;20030;-77
2022/01/06 04:55:47;;;;;;;14.55;6.75;;;1.80;99.90;;;;;;5018697;28;20486;-74
2022/01/06 04:58:12;;;;;;;17.40;7.93;;;1.80;99.90;;;;;;5018572;28;20033;-77
2022/01/06 05:00:38;;;;;;;13.25;8.15;;;1.70;99.90;;;;;;5018915;28;20026;-76
2022/01/06 05:03:04;;;;;;;18.98;7.70;;;1.70;99.90;;;;;;5018766;28;20034;-77
2022/01/06 05:05:30;;;;;;;14.20;9.02;;;1.60;99.90;;;;;;5018775;28;20025;-77
2022/01/06 05:07:56;;;;;;;17.92;8.45;;;1.60;99.90;;;;;;5018337;28;20069;-77
2022/01/06 05:10:21;;;;;;;16.17;7.90;;;1.50;99.90;;;;;;5018801;28;20026;-77
2022/01/06 05:12:47;;;;;;;21.58;8.68;;;1.50;99.90;;;;;;5018170;28;20057;-77
2022/01/06 05:15:14;;;;;;;21.73;7.80;;;1.40;99.90;;;;;;5018416;28;20025;-77
2022/01/06 05:17:41;;;;;;;16.52;8.07;;;1.40;99.90;;;;;;5018555;28;20375;-77
2022/01/06 05:20:07;;;;;;;18.67;8.30;;;1.40;99.90;;;;;;5019645;28;20022;-77
2022/01/06 05:22:36;;;;;;;11.05;8.35;;;1.40;99.90;;;;;;5019388;28;20036;-77
2022/01/06 05:25:03;;;;;;;17.02;7.90;;;1.40;99.90;;;;;;5018483;28;20030;-77
2022/01/06 05:27:28;;;;;;;21.55;7.53;;;1.40;99.90;;;;;;5017871;28;20030;-77
2022/01/06 05:29:54;;;;;;;14.35;7.78;;;1.40;99.90;;;;;;5018214;28;20025;-78
2022/01/06 05:32:20;;;;;;;15.63;7.75;;;1.40;99.90;;;;;;5012601;28;20105;-76
2022/01/06 05:34:46;;;;;;;13.40;8.65;;;1.40;99.90;;;;;;5030777;28;20128;-76
2022/01/06 05:37:11;;;;;;;16.77;7.57;;;1.40;99.90;;;;;;5006350;28;20030;-76
2022/01/06 05:39:37;;;;;;;22.08;7.85;;;1.40;99.90;;;;;;5018337;28;20025;-77
2022/01/06 05:42:03;;;;;;;16.92;7.55;;;1.40;99.90;;;;;;5018882;28;20137;-77
2022/01/06 05:44:33;;;;;;;15.90;7.88;;;1.30;99.90;;;;;;5019073;28;20064;-76
2022/01/06 05:46:59;;;;;;;20.42;8.85;;;1.30;99.90;;;;;;5018024;28;20091;-77
2022/01/06 05:49:27;;;;;;;12.68;8.32;;;1.20;99.90;;;;;;5017871;28;20018;-77
2022/01/06 05:51:52;;;;;;;11.45;7.90;;;1.20;99.90;;;;;;5017861;28;20490;-76
2022/01/06 05:54:18;;;;;;;24.77;7.88;;;1.20;99.90;;;;;;5031084;28;20116;-76
2022/01/06 05:56:44;;;;;;;15.63;8.18;;;1.20;99.90;;;;;;5038595;28;20068;-77
2022/01/06 05:59:10;;;;;;;13.57;8.23;;;1.20;99.90;;;;;;5037251;28;20040;-76
2022/01/06 06:01:36;;;;;;;14.68;7.90;;;1.20;99.90;;;;;;5038550;28;20082;-76
2022/01/06 06:04:01;;;;;;;20.77;8.35;;;1.20;99.90;;;;;;5036938;28;20029;-77
2022/01/06 06:06:27;;;;;;;18.05;7.55;;;1.20;99.90;;;;;;5037186;28;20544;-76
2022/01/06 06:08:55;;;;;;;17.90;8.43;;;1.20;99.90;;;;;;5036868;28;20056;-76
2022/01/06 06:11:21;;;;;;;17.15;8.32;;;1.20;99.90;;;;;;5038156;28;20490;-77
2022/01/06 06:13:47;;;;;;;9.57;7.35;;;1.20;99.90;;;;;;5036907;28;20048;-77
2022/01/06 06:16:12;;;;;;;15.60;7.40;;;1.10;99.90;;;;;;5038407;28;20178;-77
2022/01/06 06:18:38;;;;;;;11.50;8.10;;;1.10;99.90;;;;;;5037397;28;20506;-77
2022/01/06 06:21:06;;;;;;;14.23;7.72;;;1.10;99.90;;;;;;5018802;28;20477;-77
2022/01/06 06:23:32;;;;;;;19.20;8.65;;;1.10;99.90;;;;;;5018178;28;20026;-76
2022/01/06 06:25:58;;;;;;;13.40;7.75;;;1.10;99.90;;;;;;5018429;28;20022;-76
2022/01/06 06:28:23;;;;;;;12.60;9.07;;;1.10;99.90;;;;;;5017818;28;20056;-76
2022/01/06 06:30:49;;;;;;;23.75;9.20;;;1.10;99.90;;;;;;5017341;28;20033;-76
2022/01/06 06:33:15;;;;;;;17.65;9.07;;;1.00;99.90;;;;;;5015955;28;20433;-76
2022/01/06 06:35:43;;;;;;;20.63;8.45;;;1.00;99.90;;;;;;5016817;28;20025;-77
2022/01/06 06:38:09;;;;;;;18.50;8.13;;;0.90;99.90;;;;;;5016692;28;20479;-76
2022/01/06 06:40:35;;;;;;;22.10;8.40;;;0.90;99.90;;;;;;5016874;28;20406;-77
2022/01/06 06:43:01;;;;;;;19.08;9.40;;;0.90;99.90;;;;;;5017632;28;20045;-76
2022/01/06 06:45:27;;;;;;;20.15;9.25;;;0.90;99.90;;;;;;5018064;28;20518;-76
2022/01/06 06:47:53;;;;;;;18.70;8.60;;;1.00;99.90;;;;;;5016909;28;20029;-76
2022/01/06 06:50:21;;;;;;;13.60;8.13;;;1.00;99.90;;;;;;5016914;28;20542;-76
2022/01/06 06:52:47;;;;;;;14.40;7.95;;;0.90;99.90;;;;;;5017957;28;20010;-76
2022/01/06 06:55:14;;;;;;;20.17;8.55;;;0.90;99.90;;;;;;5017946;28;20030;-76
2022/01/06 06:57:40;;;;;;;17.15;9.18;;;0.90;99.90;;;;;;5016008;28;20014;-76
2022/01/06 07:00:08;;;;;;;16.27;8.02;;;0.90;99.90;;;;;;5017862;28;20090;-76
2022/01/06 07:02:34;;;;;;;15.70;8.93;;;0.90;99.90;;;;;;5017600;28;20060;-76
2022/01/06 07:05:00;;;;;;;19.58;8.38;;;0.90;99.90;;;;;;5016979;28;20022;-76
2022/01/06 07:07:27;;;;;;;15.75;8.48;;;0.90;99.90;;;;;;5016545;28;20061;-76
2022/01/06 07:09:53;;;;;;;20.52;8.45;;;0.90;99.90;;;;;;5017749;28;20410;-76
2022/01/06 07:12:18;;;;;;;17.20;8.20;;;1.00;99.90;;;;;;5016035;28;20025;-77
2022/01/06 07:14:44;;;;;;;20.65;8.68;;;1.00;99.90;;;;;;5017868;28;20029;-76
2022/01/06 07:17:10;;;;;;;21.13;8.32;;;1.00;99.90;;;;;;5017545;28;20029;-76
2022/01/06 07:19:38;;;;;;;11.40;8.35;;;1.00;99.90;;;;;;5016149;28;20029;-76
2022/01/06 07:22:04;;;;;;;23.90;8.57;;;1.00;99.90;;;;;;5016238;28;20030;-76
2022/01/06 07:24:30;;;;;;;20.45;9.27;;;1.00;99.90;;;;;;5016444;28;20032;-76
2022/01/06 07:26:57;;;;;;;16.17;8.93;;;1.00;99.90;;;;;;5017235;28;20101;-76
2022/01/06 07:29:23;;;;;;;19.08;8.63;;;1.00;99.90;;;;;;5016434;28;20022;-76
2022/01/06 07:31:49;;;;;;;22.85;8.40;;;1.00;99.90;;;;;;5016251;28;20076;-76
2022/01/06 07:34:15;;;;;;;26.85;9.07;;;1.00;99.90;;;;;;5016542;28;20026;-75
2022/01/06 07:36:41;;;;;;;15.10;9.05;;;1.00;99.90;;;;;;5015723;28;20133;-75
2022/01/06 07:39:06;;;;;;;19.38;7.85;;;1.00;99.90;;;;;;5016432;28;20041;-76
2022/01/06 07:41:32;;;;;;;23.58;8.75;;;1.00;99.90;;;;;;5016000;28;20076;-75
2022/01/06 07:43:58;;;;;;;23.92;8.23;;;1.00;99.90;;;;;;5016040;28;20045;-76
2022/01/06 07:46:24;;;;;;;20.05;10.60;;;1.00;99.90;;;;;;5017096;28;20502;-76
2022/01/06 07:48:56;;;;;;;15.20;8.40;;;1.10;99.90;;;;;;5017306;28;20117;-76
2022/01/06 07:51:28;;;;;;;14.00;8.35;;;1.10;99.90;;;;;;5017212;28;20014;-75
2022/01/06 07:53:55;;;;;;;11.45;7.30;;;1.20;99.90;;;;;;5017341;28;20037;-75
2022/01/06 07:56:21;;;;;;;16.38;8.48;;;1.30;99.90;;;;;;5016923;28;20025;-75
2022/01/06 07:58:48;;;;;;;18.13;7.93;;;1.30;99.90;;;;;;5015856;28;20140;-76
2022/01/06 08:01:14;;;;;;;21.15;8.70;;;1.30;99.90;;;;;;5015949;28;20453;-76
2022/01/06 08:03:40;;;;;;;24.23;7.32;;;1.40;99.90;;;;;;5016039;28;20030;-76
2022/01/06 08:06:06;;;;;;;11.48;7.25;;;1.40;99.90;;;;;;5017176;28;20033;-76
2022/01/06 08:08:32;;;;;;;21.20;8.05;;;1.50;99.90;;;;;;5015858;28;20046;-76
2022/01/06 08:10:57;;;;;;;18.70;8.18;;;1.50;99.90;;;;;;5016931;28;20018;-76
2022/01/06 08:13:23;;;;;;;26.95;9.48;;;1.60;99.90;;;;;;5017133;28;20450;-75
2022/01/06 08:15:49;;;;;;;16.42;7.55;;;1.60;99.90;;;;;;5016053;28;20030;-75
2022/01/06 08:18:15;;;;;;;18.45;8.07;;;1.60;99.90;;;;;;5020800;28;20018;-75
2022/01/06 08:20:41;;;;;;;12.35;8.13;;;1.70;99.90;;;;;;5019295;28;20026;-75
2022/01/06 08:23:07;;;;;;;18.70;7.95;;;1.80;99.90;;;;;;5019567;28;20478;-75
2022/01/06 08:25:37;;;;;;;16.63;7.82;;;1.80;99.90;;;;;;5020765;28;20080;-75
2022/01/06 08:28:03;;;;;;;12.43;7.88;;;1.90;99.90;;;;;;5019250;28;20022;-76
2022/01/06 08:30:30;;;;;;;12.00;7.70;;;1.90;99.90;;;;;;5020749;28;20022;-75
2022/01/06 08:32:56;;;;;;;13.45;7.90;;;2.00;99.90;;;;;;5019407;28;20367;-76
2022/01/06 08:35:23;;;;;;;25.10;8.18;;;2.10;99.90;;;;;;5019317;28;20022;-75
2022/01/06 08:37:49;;;;;;;14.13;7.68;;;2.10;99.90;;;;;;5020663;28;20481;-76
2022/01/06 08:40:15;;;;;;;18.15;7.60;;;2.20;99.90;;;;;;5018883;28;20105;-76
2022/01/06 08:42:41;;;;;;;17.17;7.75;;;2.20;99.90;;;;;;5019939;28;20429;-76
2022/01/06 08:45:07;;;;;;;16.27;6.63;;;2.30;99.90;;;;;;5020051;28;20080;-76
2022/01/06 08:47:33;;;;;;;18.50;8.63;;;2.30;99.90;;;;;;5018967;28;20554;-76
2022/01/06 08:49:59;;;;;;;18.00;6.93;;;2.30;99.90;;;;;;5018909;28;20045;-76
2022/01/06 08:52:27;;;;;;;23.13;7.78;;;2.30;99.90;;;;;;5019126;28;20036;-76
2022/01/06 08:54:53;;;;;;;27.40;8.85;;;2.40;99.90;;;;;;5037614;28;20044;-76
2022/01/06 08:57:21;;;;;;;16.08;8.05;;;2.40;99.90;;;;;;5039555;28;20029;-75
2022/01/06 08:59:47;;;;;;;17.10;7.65;;;2.50;99.90;;;;;;5038267;28;20025;-75
2022/01/06 09:02:13;;;;;;;16.30;7.80;;;2.50;99.90;;;;;;5039566;28;20025;-76
2022/01/06 09:04:41;;;;;;;18.83;8.18;;;2.60;99.90;;;;;;5038180;28;20024;-76
2022/01/06 09:07:07;;;;;;;17.02;8.70;;;2.60;99.90;;;;;;5039630;28;20032;-76
2022/01/06 09:09:33;;;;;;;13.20;6.90;;;2.70;99.90;;;;;;5039299;28;20049;-76
2022/01/06 09:11:59;;;;;;;18.30;7.28;;;2.70;99.90;;;;;;5038117;28;20546;-77
2022/01/06 09:14:25;;;;;;;26.90;8.13;;;2.80;99.90;;;;;;5039615;28;20022;-76
2022/01/06 09:16:53;;;;;;;16.73;9.10;;;2.90;99.90;;;;;;5038437;28;20021;-77
2022/01/06 09:19:19;;;;;;;15.20;6.40;;;3.00;99.90;;;;;;5032985;28;20033;-76
2022/01/06 09:21:45;;;;;;;15.95;7.70;;;3.00;99.90;;;;;;5018414;28;20064;-77
2022/01/06 09:24:11;;;;;;;17.63;8.05;;;3.10;99.90;;;;;;5018298;28;20022;-76
2022/01/06 09:26:38;;;;;;;18.58;6.75;;;3.20;99.90;;;;;;5018352;28;20054;-76
2022/01/06 09:29:06;;;;;;;14.40;8.48;;;3.30;99.90;;;;;;5018992;28;20109;-77
2022/01/06 09:31:36;;;;;;;38.72;8.23;;;3.30;99.90;;;;;;5018037;28;20030;-77
2022/01/06 09:34:03;;;;;;;9.02;6.35;;;3.40;99.90;;;;;;5019548;28;20382;-77
2022/01/06 09:36:30;;;;;;;16.40;7.80;;;3.40;99.90;;;;;;5019296;28;20541;-77
2022/01/06 09:38:57;;;;;;;24.15;7.55;;;3.50;99.90;;;;;;5018019;28;20037;-76
2022/01/06 09:41:24;;;;;;;12.82;6.80;;;3.60;99.90;;;;;;5018004;28;20030;-76
2022/01/06 09:43:53;;;;;;;9.70;5.97;;;3.60;99.90;;;;;;5017797;28;20072;-76
2022/01/06 09:46:26;;;;;;;19.80;7.40;;;3.70;99.90;;;;;;5017660;28;20081;-76
2022/01/06 09:48:57;;;;;;;20.13;7.45;;;3.70;99.90;;;;;;5017731;28;20018;-76
2022/01/06 09:51:24;;;;;;;19.92;7.53;;;3.80;99.90;;;;;;5017890;28;20041;-73
2022/01/06 09:53:56;;;;;;;24.83;8.18;;;3.80;99.90;;;;;;5018966;28;20132;-74
2022/01/06 09:56:22;;;;;;;13.80;7.45;;;3.90;99.90;;;;;;5017378;28;20056;-74
2022/01/06 09:58:48;;;;;;;14.02;5.50;;;3.90;99.90;;;;;;5017332;28;20037;-76
2022/01/06 10:01:14;;;;;;;21.08;8.13;;;4.00;99.90;;;;;;5017583;28;20033;-74
2022/01/06 10:03:46;;;;;;;10.07;6.85;;;4.00;99.90;;;;;;5017635;28;20030;-73
2022/01/06 10:06:21;;;;;;;14.57;7.35;;;4.10;99.90;;;;;;5017374;28;20066;-75
2022/01/06 10:09:05;;;;;;;15.75;8.45;;;4.10;99.90;;;;;;5017351;28;20076;-74
2022/01/06 10:11:35;;;;;;;19.33;8.07;;;4.20;99.90;;;;;;5018789;28;20021;-75
2022/01/06 10:14:06;;;;;;;25.17;7.55;;;4.20;99.90;;;;;;5018508;28;20026;-75
2022/01/06 10:16:32;;;;;;;;;;;4.20;99.90;;;;;;5019426;28;20022;-75
2022/01/06 10:19:01;;;;;;;13.57;6.75;;;4.30;99.90;;;;;;5018345;28;19905;-74
2022/01/06 10:21:36;;;;;;;18.67;7.15;;;4.40;99.90;;;;;;5017381;28;20030;-75
2022/01/06 10:24:06;;;;;;;16.05;8.52;;;4.40;99.90;;;;;;5017077;28;20036;-74
2022/01/06 10:26:33;;;;;;;22.85;7.43;;;4.50;99.90;;;;;;5018369;28;20056;-75
2022/01/06 10:29:06;;;;;;;15.45;6.88;;;4.50;99.90;;;;;;5018191;28;20555;-75
2022/01/06 10:31:32;;;;;;;16.23;7.40;;;4.60;99.90;;;;;;5018528;28;20391;-75
2022/01/06 10:34:06;;;;;;;18.05;8.70;;;4.60;99.90;;;;;;5017244;28;20026;-76
2022/01/06 10:36:32;;;;;;;20.05;8.32;;;4.70;99.90;;;;;;5018015;28;20052;-75
2022/01/06 10:39:08;;;;;;;18.08;9.30;;;4.70;99.90;;;;;;5017130;28;20026;-75
2022/01/06 10:41:39;;;;;;;14.02;7.10;;;4.80;99.90;;;;;;5017340;28;20034;-75
2022/01/06 10:44:12;;;;;;;23.42;7.20;;;4.90;99.90;;;;;;5018077;28;20025;-76
2022/01/06 10:46:47;;;;;;;12.43;7.05;;;4.90;99.90;;;;;;5017934;28;20033;-74
2022/01/06 10:49:17;;;;;;;19.80;7.03;;;5.00;99.90;;;;;;5016703;28;20018;-75
2022/01/06 10:51:59;;;;;;;;;;;;;;;;;;;;;
2022/01/06 10:54:27;;;;;;;12.60;5.03;;;5.10;99.90;;;;;;5017786;28;20022;-75
2022/01/06 10:56:59;;;;;;;20.48;6.35;;;5.10;99.90;;;;;;5017859;28;20033;-75
2022/01/06 10:59:33;;;;;;;15.90;5.32;;;5.20;99.90;;;;;;5016334;28;20053;-76
2022/01/06 11:02:02;;;;;;;12.43;5.10;;;5.20;99.90;;;;;;5016608;28;20053;-74
2022/01/06 11:04:29;;;;;;;14.20;5.60;;;5.30;99.90;;;;;;5016506;28;20098;-75
2022/01/06 11:07:06;;;;;;;15.10;5.50;;;5.30;99.90;;;;;;5016419;28;20022;-75
2022/01/06 11:09:32;;;;;;;13.20;5.07;;;5.30;99.90;;;;;;5016248;28;20045;-75
2022/01/06 11:14:37;;;;;;;11.98;5.53;;;5.60;99.90;;;;;;5017684;28;20052;-76
2022/01/06 11:17:06;;;;;;;11.27;5.97;;;5.60;99.90;;;;;;5017646;28;20037;-76
2022/01/06 11:19:31;;;;;;;16.17;5.13;;;5.60;99.90;;;;;;5017533;28;20029;-76
2022/01/06 11:22:01;;;;;;;14.18;4.78;;;5.60;99.90;;;;;;5017311;28;20026;-75
2022/01/06 11:24:29;;;;;;;13.85;6.45;;;5.60;99.90;;;;;;5017712;28;20026;-76
2022/01/06 11:27:10;;;;;;;15.82;4.30;;;5.60;99.90;;;;;;5017271;28;20026;-76
2022/01/06 11:29:42;;;;;;;12.25;5.90;;;5.70;99.90;;;;;;5017720;28;20480;-77
2022/01/06 11:32:20;;;;;;;14.80;5.55;;;5.70;99.90;;;;;;5016226;28;20030;-76
2022/01/06 11:34:49;;;;;;;13.32;6.07;;;5.70;99.90;;;;;;5017464;28;20030;-75
2022/01/06 11:37:16;;;;;;;13.85;4.72;;;5.70;99.90;;;;;;5016648;28;20057;-76
2022/01/06 11:39:44;;;;;;;15.82;5.18;;;5.70;99.90;;;;;;5015995;28;20068;-77
2022/01/06 11:42:22;;;;;;;14.05;5.00;;;5.70;99.90;;;;;;5016011;28;20054;-76
2022/01/06 11:44:56;;;;;;;13.55;5.50;;;5.70;99.90;;;;;;5017145;28;20026;-76
2022/01/06 11:47:38;;;;;;;10.60;4.35;;;5.80;99.90;;;;;;5017212;28;20049;-76
2022/01/06 11:50:06;;;;;;;6.38;3.50;;;5.80;99.90;;;;;;5017154;28;20026;-75
2022/01/06 11:52:44;;;;;;;;;;;;;;;;;;;;;
2022/01/06 11:55:19;;;;;;;15.15;4.90;;;5.90;99.90;;;;;;5021544;28;20115;-76
2022/01/06 11:57:45;;;;;;;11.80;5.30;;;6.00;99.90;;;;;;5019809;28;20076;-76
2022/01/06 12:00:29;;;;;;;12.43;4.85;;;6.00;99.90;;;;;;5020178;28;20076;-76
2022/01/06 12:03:10;;;;;;;21.88;5.22;;;6.00;99.90;;;;;;5020826;28;20030;-76
2022/01/06 12:05:58;;;;;;;;;;;;;;;;;;;;;
2022/01/06 12:08:39;;;;;;;8.65;4.35;;;6.00;99.90;;;;;;5019647;28;20125;-75
2022/01/06 12:11:12;;;;;;;16.57;5.33;;;6.00;99.90;;;;;;5019774;28;20112;-76
2022/01/06 12:13:45;;;;;;;16.58;4.32;;;6.00;99.90;;;;;;5019995;28;20042;-76
2022/01/06 12:16:11;;;;;;;6.63;4.15;;;6.00;99.90;;;;;;5008996;28;20121;-76
2022/01/06 12:18:44;;;;;;;13.05;5.18;;;6.00;99.90;;;;;;5020530;28;20029;-76
2022/01/06 12:21:10;;;;;;;10.00;4.50;;;6.10;99.90;;;;;;5027851;28;20104;-76
2022/01/06 12:23:39;;;;;;;11.52;4.50;;;6.10;99.90;;;;;;5038816;28;20052;-76
2022/01/06 12:26:12;;;;;;;13.18;5.05;;;6.10;99.90;;;;;;5039412;28;20080;-76
2022/01/06 12:28:48;;;;;;;8.68;4.30;;;6.20;99.90;;;;;;5038557;28;20029;-75
2022/01/06 12:31:33;;;;;;;10.77;6.43;;;6.30;99.90;;;;;;5040284;28;20024;-76
2022/01/06 12:34:01;;;;;;;8.38;4.70;;;6.30;99.90;;;;;;5038871;28;20056;-77
2022/01/06 12:36:33;;;;;;;10.82;4.72;;;6.30;99.90;;;;;;5022351;28;20029;-77
2022/01/06 12:39:09;;;;;;;10.90;4.95;;;6.20;99.90;;;;;;5019417;28;20117;-76
2022/01/06 12:41:39;;;;;;;13.88;4.68;;;6.30;99.90;;;;;;5018792;28;20125;-76
2022/01/06 12:44:06;;;;;;;9.80;4.80;;;6.40;99.90;;;;;;5018932;28;20052;-76
2022/01/06 12:46:39;;;;;;;11.93;4.78;;;6.50;99.90;;;;;;5018998;28;20048;-76
2022/01/06 12:49:14;;;;;;;13.73;4.55;;;6.70;99.90;;;;;;5020345;28;20026;-77
2022/01/06 12:51:46;;;;;;;8.93;4.32;;;6.90;99.90;;;;;;5020091;28;20050;-76
2022/01/06 12:54:19;;;;;;;5.38;3.58;;;7.00;99.90;;;;;;5020153;28;20056;-76
2022/01/06 12:57:06;;;;;;;8.07;3.60;;;7.10;99.90;;;;;;5018603;28;20498;-76
2022/01/06 12:59:41;;;;;;;12.20;4.25;;;7.20;99.90;;;;;;5035864;28;20134;-76
2022/01/06 13:02:10;;;;;;;16.65;5.53;;;7.10;99.90;;;;;;5038460;28;20029;-79
2022/01/06 13:04:42;;;;;;;11.52;3.53;;;7.10;99.90;;;;;;5037800;28;20040;-78